createdAt,value
2024-04-23T00:00:58.355Z,34.94
2024-04-23T00:02:01.887Z,34.98
2024-04-23T00:03:05.274Z,34.96
2024-04-23T00:04:08.752Z,34.94
2024-04-23T00:05:13.706Z,35.02
2024-04-23T00:06:17.148Z,34.95
2024-04-23T00:07:20.369Z,34.97
2024-04-23T00:08:23.572Z,34.96
2024-04-23T00:09:26.761Z,34.88
2024-04-23T00:10:31.725Z,34.92
2024-04-23T00:11:35.332Z,34.94
2024-04-23T00:12:38.684Z,34.98
2024-04-23T00:13:42.015Z,34.95
2024-04-23T00:14:45.272Z,35.02
2024-04-23T00:15:48.565Z,34.93
2024-04-23T00:16:51.989Z,34.98
2024-04-23T00:17:55.305Z,34.98
2024-04-23T00:18:58.652Z,34.96
2024-04-23T00:20:04.053Z,35.03
2024-04-23T00:21:07.377Z,34.94
2024-04-23T00:22:10.514Z,34.95
2024-04-23T00:23:13.827Z,35.01
2024-04-23T00:24:17.006Z,35.01
2024-04-23T00:25:20.265Z,35.02
2024-04-23T00:26:25.595Z,34.96
2024-04-23T00:27:28.816Z,34.97
2024-04-23T00:28:32.146Z,34.96
2024-04-23T00:29:35.518Z,34.94
2024-04-23T00:30:38.806Z,34.9
2024-04-23T00:31:42.036Z,34.96
2024-04-23T00:32:46.809Z,34.94
2024-04-23T00:33:50.245Z,35.03
2024-04-23T00:34:53.555Z,34.95
2024-04-23T00:35:56.931Z,34.95
2024-04-23T00:37:00.340Z,34.98
2024-04-23T00:38:03.610Z,34.96
2024-04-23T00:39:06.966Z,35
2024-04-23T00:40:10.207Z,34.96
2024-04-23T00:41:13.489Z,34.98
2024-04-23T00:42:16.787Z,34.96
2024-04-23T00:43:20.046Z,34.97
2024-04-23T00:44:23.258Z,35.01
2024-04-23T00:45:26.581Z,34.95
2024-04-23T00:46:32.006Z,34.99
2024-04-23T00:47:37.376Z,34.95
2024-04-23T00:48:42.515Z,34.95
2024-04-23T00:49:45.771Z,34.88
2024-04-23T00:50:49.080Z,34.94
2024-04-23T00:51:52.378Z,34.9
2024-04-23T00:52:55.766Z,34.92
2024-04-23T00:53:59.177Z,34.92
2024-04-23T00:55:02.441Z,35.02
2024-04-23T00:56:05.711Z,35.01
2024-04-23T00:57:09.107Z,35
2024-04-23T00:58:12.415Z,35.01
2024-04-23T00:59:15.669Z,34.94
2024-04-23T01:00:18.912Z,34.96
2024-04-23T01:01:22.151Z,35.06
2024-04-23T01:02:25.445Z,35.06
2024-04-23T01:03:28.887Z,34.96
2024-04-23T01:04:32.206Z,34.97
2024-04-23T01:05:35.510Z,35.03
2024-04-23T01:06:38.733Z,34.95
2024-04-23T01:07:41.979Z,34.97
2024-04-23T01:08:46.664Z,34.95
2024-04-23T01:09:49.870Z,34.97
2024-04-23T01:10:55.281Z,34.9
2024-04-23T01:11:58.670Z,34.94
2024-04-23T01:13:02.105Z,34.96
2024-04-23T01:14:10.812Z,34.95
2024-04-23T01:15:15.927Z,34.87
2024-04-23T01:16:19.069Z,34.89
2024-04-23T01:17:22.407Z,34.83
2024-04-23T01:18:28.038Z,34.83
2024-04-23T01:19:31.442Z,34.91
2024-04-23T01:20:34.711Z,34.9
2024-04-23T01:21:38.005Z,34.86
2024-04-23T01:22:41.276Z,34.89
2024-04-23T01:23:44.527Z,34.92
2024-04-23T01:24:49.770Z,34.93
2024-04-23T01:25:53.024Z,34.92
2024-04-23T01:26:56.266Z,34.95
2024-04-23T01:28:00.533Z,34.96
2024-04-23T01:29:03.829Z,34.87
2024-04-23T01:30:07.140Z,34.91
2024-04-23T01:31:10.430Z,34.9
2024-04-23T01:32:13.680Z,34.8
2024-04-23T01:33:16.981Z,34.93
2024-04-23T01:34:20.323Z,34.85
2024-04-23T01:35:23.523Z,34.93
2024-04-23T01:36:26.751Z,34.88
2024-04-23T01:37:29.996Z,34.91
2024-04-23T01:38:33.279Z,34.93
2024-04-23T01:39:36.536Z,34.95
2024-04-23T01:40:41.306Z,34.9
2024-04-23T01:41:44.422Z,34.88
2024-04-23T01:42:49.608Z,34.89
2024-04-23T01:43:55.116Z,34.81
2024-04-23T01:44:58.562Z,34.86
2024-04-23T01:46:03.798Z,34.85
2024-04-23T01:47:07.006Z,34.88
2024-04-23T01:48:12.831Z,34.86
2024-04-23T01:49:16.139Z,34.92
2024-04-23T01:50:19.347Z,34.81
2024-04-23T01:51:22.520Z,34.81
2024-04-23T01:52:25.795Z,34.82
2024-04-23T01:53:30.593Z,34.91
2024-04-23T01:54:33.810Z,34.87
2024-04-23T01:55:37.094Z,34.81
2024-04-23T01:56:42.264Z,34.87
2024-04-23T01:57:45.585Z,34.84
2024-04-23T01:58:48.797Z,34.87
2024-04-23T01:59:52.240Z,34.88
2024-04-23T02:00:55.626Z,34.84
2024-04-23T02:01:59.117Z,34.92
2024-04-23T02:03:02.511Z,34.92
2024-04-23T02:04:05.681Z,34.89
2024-04-23T02:05:08.924Z,34.95
2024-04-23T02:06:12.163Z,34.92
2024-04-23T02:07:21.446Z,34.94
2024-04-23T02:08:24.516Z,34.94
2024-04-23T02:09:27.717Z,34.93
2024-04-23T02:10:31.031Z,34.87
2024-04-23T02:11:36.392Z,34.87
2024-04-23T02:12:39.606Z,34.77
2024-04-23T02:13:42.898Z,34.89
2024-04-23T02:14:46.279Z,34.83
2024-04-23T02:15:51.497Z,34.85
2024-04-23T02:17:00.534Z,34.87
2024-04-23T02:18:04.901Z,34.8
2024-04-23T02:19:08.264Z,34.78
2024-04-23T02:20:11.608Z,34.78
2024-04-23T02:21:14.975Z,34.76
2024-04-23T02:22:18.168Z,34.73
2024-04-23T02:23:21.379Z,34.83
2024-04-23T02:24:24.635Z,34.83
2024-04-23T02:25:29.418Z,34.85
2024-04-23T02:26:32.762Z,34.83
2024-04-23T02:27:36.038Z,34.85
2024-04-23T02:28:39.347Z,34.83
2024-04-23T02:29:42.660Z,34.79
2024-04-23T02:30:45.979Z,34.89
2024-04-23T02:31:49.386Z,34.8
2024-04-23T02:32:52.920Z,34.85
2024-04-23T02:33:56.321Z,34.83
2024-04-23T02:34:59.743Z,34.86
2024-04-23T02:36:03.180Z,34.81
2024-04-23T02:37:06.379Z,34.86
2024-04-23T02:38:09.615Z,34.84
2024-04-23T02:39:12.859Z,34.93
2024-04-23T02:40:16.089Z,34.94
2024-04-23T02:41:19.250Z,34.9
2024-04-23T02:42:22.490Z,34.95
2024-04-23T02:43:27.847Z,34.93
2024-04-23T02:44:31.218Z,34.94
2024-04-23T02:45:34.495Z,34.79
2024-04-23T02:46:37.886Z,34.83
2024-04-23T02:47:41.189Z,34.78
2024-04-23T02:48:44.694Z,34.83
2024-04-23T02:49:48.102Z,34.91
2024-04-23T02:50:51.358Z,34.89
2024-04-23T02:51:56.114Z,34.92
2024-04-23T02:52:59.340Z,34.85
2024-04-23T02:54:02.651Z,34.87
2024-04-23T02:55:05.872Z,34.88
2024-04-23T02:56:09.170Z,34.9
2024-04-23T02:57:12.506Z,34.85
2024-04-23T02:58:17.248Z,34.82
2024-04-23T02:59:20.488Z,34.81
2024-04-23T03:00:23.761Z,34.95
2024-04-23T03:01:27.109Z,34.84
2024-04-23T03:02:30.642Z,34.8
2024-04-23T03:03:34.146Z,34.81
2024-04-23T03:04:37.894Z,34.81
2024-04-23T03:05:41.626Z,34.8
2024-04-23T03:06:44.812Z,34.86
2024-04-23T03:07:48.095Z,34.89
2024-04-23T03:08:52.983Z,34.86
2024-04-23T03:09:56.192Z,34.88
2024-04-23T03:10:59.639Z,34.82
2024-04-23T03:12:03.118Z,34.87
2024-04-23T03:13:06.368Z,34.87
2024-04-23T03:14:09.656Z,34.96
2024-04-23T03:15:12.938Z,34.85
2024-04-23T03:16:16.110Z,34.82
2024-04-23T03:17:19.359Z,34.92
2024-04-23T03:18:22.848Z,34.93
2024-04-23T03:19:28.035Z,34.87
2024-04-23T03:20:31.384Z,34.88
2024-04-23T03:21:34.648Z,34.86
2024-04-23T03:22:37.999Z,34.86
2024-04-23T03:23:41.292Z,34.83
2024-04-23T03:24:44.530Z,34.86
2024-04-23T03:25:47.751Z,34.8
2024-04-23T03:26:51.032Z,34.87
2024-04-23T03:27:54.259Z,34.85
2024-04-23T03:28:59.627Z,34.86
2024-04-23T03:30:02.902Z,34.83
2024-04-23T03:31:06.113Z,34.83
2024-04-23T03:32:09.500Z,34.78
2024-04-23T03:33:13.213Z,34.78
2024-04-23T03:34:16.687Z,34.77
2024-04-23T03:35:19.977Z,34.81
2024-04-23T03:36:23.235Z,34.76
2024-04-23T03:37:26.575Z,34.86
2024-04-23T03:38:29.862Z,34.76
2024-04-23T03:39:33.112Z,34.82
2024-04-23T03:40:38.393Z,34.83
2024-04-23T03:41:41.754Z,34.77
2024-04-23T03:42:45.042Z,34.81
2024-04-23T03:43:48.407Z,34.78
2024-04-23T03:44:51.673Z,34.79
2024-04-23T03:45:56.954Z,34.81
2024-04-23T03:47:00.485Z,34.8
2024-04-23T03:48:03.915Z,34.77
2024-04-23T03:49:07.305Z,34.81
2024-04-23T03:50:10.659Z,34.77
2024-04-23T03:51:13.926Z,34.74
2024-04-23T03:52:19.185Z,34.73
2024-04-23T03:53:22.447Z,34.69
2024-04-23T03:54:25.636Z,34.68
2024-04-23T03:55:28.925Z,34.67
2024-04-23T03:56:34.172Z,34.69
2024-04-23T03:57:37.422Z,34.73
2024-04-23T03:58:41.833Z,34.76
2024-04-23T03:59:45.210Z,34.65
2024-04-23T04:00:48.534Z,34.68
2024-04-23T04:01:52.035Z,34.7
2024-04-23T04:02:57.385Z,34.69
2024-04-23T04:04:00.652Z,34.63
2024-04-23T04:05:03.995Z,34.72
2024-04-23T04:06:07.245Z,34.72
2024-04-23T04:07:10.482Z,34.66
2024-04-23T04:08:15.737Z,34.67
2024-04-23T04:09:20.987Z,34.72
2024-04-23T04:10:24.152Z,34.63
2024-04-23T04:11:27.457Z,34.53
2024-04-23T04:12:30.804Z,34.63
2024-04-23T04:13:34.136Z,34.62
2024-04-23T04:14:37.440Z,34.62
2024-04-23T04:15:40.639Z,34.58
2024-04-23T04:16:45.572Z,34.56
2024-04-23T04:17:51.106Z,34.64
2024-04-23T04:18:54.655Z,34.57
2024-04-23T04:19:58.077Z,34.58
2024-04-23T04:21:01.386Z,34.58
2024-04-23T04:22:04.553Z,34.58
2024-04-23T04:23:08.123Z,34.56
2024-04-23T04:24:11.520Z,34.6
2024-04-23T04:25:14.824Z,34.6
2024-04-23T04:26:18.063Z,34.62
2024-04-23T04:27:21.298Z,34.6
2024-04-23T04:28:24.545Z,34.49
2024-04-23T04:29:29.234Z,34.54
2024-04-23T04:30:32.401Z,34.55
2024-04-23T04:31:37.690Z,34.51
2024-04-23T04:32:40.982Z,34.46
2024-04-23T04:33:44.265Z,34.49
2024-04-23T04:34:47.665Z,34.45
2024-04-23T04:35:50.951Z,34.42
2024-04-23T04:36:54.175Z,34.47
2024-04-23T04:37:59.639Z,34.43
2024-04-23T04:39:02.878Z,34.44
2024-04-23T04:40:06.090Z,34.39
2024-04-23T04:41:09.422Z,34.41
2024-04-23T04:42:12.757Z,34.41
2024-04-23T04:43:16.007Z,34.45
2024-04-23T04:44:19.234Z,34.4
2024-04-23T04:45:22.512Z,34.3
2024-04-23T04:46:25.813Z,34.29
2024-04-23T04:47:29.333Z,34.29
2024-04-23T04:48:32.877Z,34.31
2024-04-23T04:49:36.221Z,34.29
2024-04-23T04:50:39.617Z,34.24
2024-04-23T04:51:42.928Z,34.28
2024-04-23T04:52:46.313Z,34.19
2024-04-23T04:53:49.833Z,33.97
2024-04-23T04:54:53.048Z,33.94
2024-04-23T04:55:56.480Z,33.83
2024-04-23T04:56:59.823Z,33.81
2024-04-23T04:58:03.114Z,33.72
2024-04-23T04:59:06.452Z,33.78
2024-04-23T05:00:09.822Z,33.77
2024-04-23T05:01:14.279Z,33.77
2024-04-23T05:02:17.654Z,33.8
2024-04-23T05:03:21.019Z,33.74
2024-04-23T05:04:24.370Z,33.82
2024-04-23T05:05:27.772Z,33.82
2024-04-23T05:06:31.018Z,33.81
2024-04-23T05:07:36.313Z,33.7
2024-04-23T05:08:39.428Z,33.73
2024-04-23T05:09:42.721Z,33.75
2024-04-23T05:10:46.076Z,33.56
2024-04-23T05:11:49.560Z,33.62
2024-04-23T05:12:53.083Z,33.66
2024-04-23T05:13:56.409Z,33.71
2024-04-23T05:14:59.680Z,33.7
2024-04-23T05:16:04.461Z,33.6
2024-04-23T05:17:07.828Z,33.1
2024-04-23T05:18:13.431Z,33.27
2024-04-23T05:19:16.820Z,33.16
2024-04-23T05:20:20.040Z,32.88
2024-04-23T05:21:23.282Z,32.93
2024-04-23T05:22:26.471Z,33.03
2024-04-23T05:23:31.757Z,33.09
2024-04-23T05:24:34.953Z,33.1
2024-04-23T05:25:38.181Z,32.97
2024-04-23T05:26:43.492Z,32.93
2024-04-23T05:27:46.727Z,33.03
2024-04-23T05:28:52.229Z,32.86
2024-04-23T05:29:56.550Z,32.97
2024-04-23T05:31:01.725Z,32.87
2024-04-23T05:32:04.892Z,32.9
2024-04-23T05:33:08.658Z,32.88
2024-04-23T05:34:13.528Z,32.91
2024-04-23T05:35:16.829Z,32.87
2024-04-23T05:36:20.149Z,32.88
2024-04-23T05:37:23.436Z,32.76
2024-04-23T05:38:26.670Z,32.77
2024-04-23T05:39:29.894Z,32.81
2024-04-23T05:40:33.183Z,32.94
2024-04-23T05:41:36.415Z,32.99
2024-04-23T05:42:41.590Z,33.15
2024-04-23T05:43:44.949Z,32.72
2024-04-23T05:44:48.454Z,30.55
2024-04-23T05:45:51.582Z,29.34
2024-04-23T05:46:54.877Z,28.96
2024-04-23T05:47:59.916Z,28.89
2024-04-23T05:49:04.071Z,29.24
2024-04-23T05:50:07.595Z,30.18
2024-04-23T05:51:11.012Z,31.03
2024-04-23T05:52:22.685Z,30.5
2024-04-23T05:53:32.063Z,30.92
2024-04-23T05:54:35.286Z,31.18
2024-04-23T05:55:38.910Z,31.44
2024-04-23T05:56:44.300Z,31.22
2024-04-23T05:57:47.440Z,31.34
2024-04-23T05:58:51.157Z,31.39
2024-04-23T05:59:55.348Z,31.39
2024-04-23T06:00:58.628Z,31.5
2024-04-23T06:02:04.249Z,31.57
2024-04-23T06:03:07.656Z,31.61
2024-04-23T06:04:11.147Z,31.7
2024-04-23T06:05:14.482Z,31.72
2024-04-23T06:06:17.905Z,31.8
2024-04-23T06:07:21.192Z,31.84
2024-04-23T06:08:24.588Z,31.85
2024-04-23T06:09:29.934Z,31.84
2024-04-23T06:10:33.218Z,31.98
2024-04-23T06:11:38.867Z,31.89
2024-04-23T06:12:42.086Z,32.01
2024-04-23T06:13:45.647Z,32
2024-04-23T06:14:48.854Z,32.15
2024-04-23T06:15:53.236Z,32.21
2024-04-23T06:16:56.568Z,32.27
2024-04-23T06:17:59.904Z,32.38
2024-04-23T06:19:03.397Z,32.34
2024-04-23T06:20:07.170Z,32.5
2024-04-23T06:21:10.507Z,32.52
2024-04-23T06:22:13.796Z,32.52
2024-04-23T06:23:18.566Z,32.71
2024-04-23T06:24:21.742Z,32.22
2024-04-23T06:25:27.088Z,32.09
2024-04-23T06:26:30.264Z,31.56
2024-04-23T06:27:33.493Z,31.63
2024-04-23T06:28:38.830Z,31.92
2024-04-23T06:29:41.927Z,32.15
2024-04-23T06:30:45.188Z,32.15
2024-04-23T06:31:48.680Z,32.21
2024-04-23T06:32:52.259Z,32.2
2024-04-23T06:33:57.611Z,32.33
2024-04-23T06:35:03.068Z,32.36
2024-04-23T06:36:06.571Z,32.28
2024-04-23T06:37:09.897Z,32.34
2024-04-23T06:38:13.200Z,32.89
2024-04-23T06:39:16.501Z,32.16
2024-04-23T06:40:19.701Z,31.47
2024-04-23T06:41:23.187Z,31.5
2024-04-23T06:42:37.187Z,31.68
2024-04-23T06:43:49.754Z,31.67
2024-04-23T06:44:52.808Z,30.98
2024-04-23T06:47:04.388Z,29.3
2024-04-23T06:48:09.711Z,28.75
2024-04-23T06:49:12.969Z,29.08
2024-04-23T06:50:18.189Z,30.26
2024-04-23T06:51:23.411Z,29.89
2024-04-23T06:52:26.626Z,30.26
2024-04-23T06:53:29.868Z,30.38
2024-04-23T06:54:33.098Z,30.45
2024-04-23T06:55:36.479Z,30.37
2024-04-23T06:56:40.640Z,30.26
2024-04-23T06:57:43.912Z,30.32
2024-04-23T06:58:49.297Z,30.37
2024-04-23T06:59:53.563Z,30.48
2024-04-23T07:00:56.860Z,30.66
2024-04-23T07:02:01.192Z,30.62
2024-04-23T07:03:06.168Z,30.51
2024-04-23T07:04:09.692Z,30.51
2024-04-23T07:05:15.203Z,30.51
2024-04-23T07:06:18.529Z,30.58
2024-04-23T07:07:23.209Z,30.62
2024-04-23T07:08:26.377Z,30.71
2024-04-23T07:09:29.604Z,30.79
2024-04-23T07:10:33.009Z,30.9
2024-04-23T07:11:36.424Z,31.1
2024-04-23T07:12:41.764Z,31.1
2024-04-23T07:13:44.968Z,31.04
2024-04-23T07:14:50.337Z,31.1
2024-04-23T07:15:53.519Z,31.2
2024-04-23T07:16:57.055Z,31.34
2024-04-23T07:18:00.809Z,31.55
2024-04-23T07:19:04.269Z,31.44
2024-04-23T07:20:07.590Z,31.81
2024-04-23T07:21:10.941Z,31.19
2024-04-23T07:22:14.254Z,31.25
2024-04-23T07:23:17.502Z,31.58
2024-04-23T07:24:20.765Z,31.66
2024-04-23T07:25:25.498Z,31.73
2024-04-23T07:26:28.688Z,31.86
2024-04-23T07:27:32.045Z,31.61
2024-04-23T07:28:35.445Z,31.86
2024-04-23T07:29:38.817Z,31.41
2024-04-23T07:30:42.255Z,31.36
2024-04-23T07:31:45.525Z,31.61
2024-04-23T07:32:50.883Z,31.53
2024-04-23T07:33:54.287Z,31.62
2024-04-23T07:34:57.809Z,31.69
2024-04-23T07:36:03.228Z,31.7
2024-04-23T07:37:06.339Z,31.78
2024-04-23T07:38:09.653Z,31.88
2024-04-23T07:39:13.210Z,31.81
2024-04-23T07:40:16.527Z,31.92
2024-04-23T07:41:19.778Z,31.86
2024-04-23T07:42:22.938Z,31.88
2024-04-23T07:43:26.852Z,31.95
2024-04-23T07:44:31.789Z,32
2024-04-23T07:45:35.145Z,32.08
2024-04-23T07:46:38.592Z,32.07
2024-04-23T07:47:42.197Z,32.24
2024-04-23T07:48:45.803Z,32.16
2024-04-23T07:49:49.245Z,32.3
2024-04-23T07:50:52.585Z,32.32
2024-04-23T07:51:57.789Z,32.56
2024-04-23T07:53:01.181Z,32.63
2024-04-23T07:54:04.603Z,32.64
2024-04-23T07:55:07.928Z,32.34
2024-04-23T07:56:11.569Z,32.44
2024-04-23T07:57:14.956Z,32.5
2024-04-23T07:58:18.170Z,32.51
2024-04-23T07:59:21.455Z,32.57
2024-04-23T08:00:24.783Z,32.59
2024-04-23T08:01:28.013Z,32.64
2024-04-23T08:02:31.332Z,32.6
2024-04-23T08:03:36.703Z,32.66
2024-04-23T08:04:39.883Z,32.64
2024-04-23T08:05:43.152Z,32.53
2024-04-23T08:06:46.454Z,32.54
2024-04-23T08:07:49.684Z,32.46
2024-04-23T08:08:52.891Z,32.35
2024-04-23T08:09:56.149Z,32.1
2024-04-23T08:10:59.397Z,32.13
2024-04-23T08:12:02.766Z,32.16
2024-04-23T08:13:06.239Z,32.25
2024-04-23T08:14:09.700Z,32.12
2024-04-23T08:15:18.020Z,32.12
2024-04-23T08:16:23.972Z,32.13
2024-04-23T08:17:27.654Z,32.19
2024-04-23T08:18:31.283Z,32.04
2024-04-23T08:19:34.640Z,31.95
2024-04-23T08:20:42.582Z,31.9
2024-04-23T08:21:46.229Z,31.9
2024-04-23T08:22:49.563Z,31.95
2024-04-23T08:23:52.895Z,31.97
2024-04-23T08:24:56.133Z,31.93
2024-04-23T08:25:59.472Z,31.96
2024-04-23T08:27:02.774Z,31.97
2024-04-23T08:28:06.027Z,31.99
2024-04-23T08:29:10.330Z,31.98
2024-04-23T08:30:13.645Z,31.97
2024-04-23T08:31:16.855Z,31.97
2024-04-23T08:32:20.065Z,32.02
2024-04-23T08:33:23.497Z,32.02
2024-04-23T08:34:26.985Z,31.98
2024-04-23T08:35:30.277Z,32
2024-04-23T08:36:33.492Z,31.86
2024-04-23T08:37:38.753Z,31.83
2024-04-23T08:38:41.967Z,31.81
2024-04-23T08:39:45.647Z,31.77
2024-04-23T08:40:49.852Z,31.82
2024-04-23T08:41:53.195Z,31.83
2024-04-23T08:42:58.055Z,31.91
2024-04-23T08:44:01.475Z,31.89
2024-04-23T08:45:04.985Z,31.86
2024-04-23T08:46:08.346Z,31.9
2024-04-23T08:47:11.995Z,31.91
2024-04-23T08:48:21.378Z,31.92
2024-04-23T08:49:24.564Z,31.91
2024-04-23T08:50:27.917Z,31.92
2024-04-23T08:51:31.212Z,31.83
2024-04-23T08:52:34.480Z,31.89
2024-04-23T08:53:37.641Z,31.9
2024-04-23T08:54:40.966Z,31.93
2024-04-23T08:55:44.526Z,31.88
2024-04-23T08:56:47.896Z,31.88
2024-04-23T08:57:51.156Z,31.94
2024-04-23T08:58:54.451Z,31.94
2024-04-23T08:59:59.243Z,31.95
2024-04-23T09:01:02.490Z,32
2024-04-23T09:02:05.830Z,31.97
2024-04-23T09:03:09.333Z,32.04
2024-04-23T09:04:12.776Z,32.06
2024-04-23T09:05:16.601Z,32.02
2024-04-23T09:06:24.370Z,32
2024-04-23T09:07:33.122Z,32.06
2024-04-23T09:08:36.740Z,32.03
2024-04-23T09:09:39.894Z,32.12
2024-04-23T09:10:43.231Z,32.01
2024-04-23T09:11:47.000Z,32.05
2024-04-23T09:12:52.344Z,32.07
2024-04-23T09:13:55.627Z,32.04
2024-04-23T09:14:59.222Z,32.03
2024-04-23T09:16:02.360Z,31.99
2024-04-23T09:17:07.694Z,32.07
2024-04-23T09:18:11.117Z,32.05
2024-04-23T09:19:14.532Z,32.1
2024-04-23T09:20:18.924Z,32.03
2024-04-23T09:21:24.274Z,30.57
2024-04-23T09:22:27.497Z,29.8
2024-04-23T09:23:30.903Z,27.15
2024-04-23T09:24:36.098Z,25.97
2024-04-23T09:25:39.703Z,25.9
2024-04-23T09:26:42.993Z,24.96
2024-04-23T09:27:46.220Z,24.77
2024-04-23T09:28:49.601Z,24.52
2024-04-23T09:29:53.229Z,24.23
2024-04-23T09:30:56.379Z,23.7
2024-04-23T09:31:59.608Z,22.88
2024-04-23T09:33:03.382Z,22.83
2024-04-23T09:34:08.423Z,22.69
2024-04-23T09:35:11.796Z,22.98
2024-04-23T09:36:15.101Z,24.51
2024-04-23T09:37:18.292Z,24.59
2024-04-23T09:38:21.676Z,24.12
2024-04-23T09:39:25.072Z,23.05
2024-04-23T09:40:28.384Z,23.06
2024-04-23T09:41:31.588Z,24.83
2024-04-23T09:42:34.849Z,23.29
2024-04-23T09:43:38.172Z,22.37
2024-04-23T09:44:41.366Z,21.9
2024-04-23T09:45:46.641Z,21.67
2024-04-23T09:46:49.885Z,21.43
2024-04-23T09:47:53.379Z,22.55
2024-04-23T09:48:58.370Z,25.42
2024-04-23T09:50:01.627Z,26.13
2024-04-23T09:51:04.882Z,26.49
2024-04-23T09:52:08.156Z,26.11
2024-04-23T09:53:11.687Z,26.47
2024-04-23T09:54:15.136Z,24.78
2024-04-23T09:55:18.307Z,24.32
2024-04-23T09:56:21.510Z,25.27
2024-04-23T09:57:24.730Z,23.59
2024-04-23T09:58:30.638Z,22.67
2024-04-23T09:59:33.889Z,23.71
2024-04-23T10:00:37.174Z,25.48
2024-04-23T10:01:40.611Z,25
2024-04-23T10:02:44.372Z,26.51
2024-04-23T10:03:52.191Z,25.72
2024-04-23T10:04:56.273Z,25.46
2024-04-23T10:05:59.816Z,25.51
2024-04-23T10:07:03.100Z,25.6
2024-04-23T10:08:06.537Z,25.72
2024-04-23T10:09:11.893Z,25.9
2024-04-23T10:10:23.082Z,25.95
2024-04-23T10:11:27.874Z,26.19
2024-04-23T10:12:31.427Z,26.32
2024-04-23T10:13:36.917Z,26.2
2024-04-23T10:14:40.129Z,26.19
2024-04-23T10:15:43.376Z,26.33
2024-04-23T10:16:46.675Z,26.46
2024-04-23T10:17:50.143Z,26.5
2024-04-23T10:18:53.681Z,26.57
2024-04-23T10:19:56.960Z,26.62
2024-04-23T10:21:00.195Z,26.72
2024-04-23T10:22:03.516Z,26.84
2024-04-23T10:23:07.031Z,26.8
2024-04-23T10:24:10.491Z,26.89
2024-04-23T10:25:13.802Z,26.96
2024-04-23T10:26:17.316Z,27.02
2024-04-23T10:27:20.722Z,27.11
2024-04-23T10:28:23.997Z,27.14
2024-04-23T10:29:29.351Z,27.16
2024-04-23T10:30:32.543Z,27.22
2024-04-23T10:31:38.135Z,27.13
2024-04-23T10:32:41.961Z,27.09
2024-04-23T10:33:45.717Z,27.03
2024-04-23T10:34:49.251Z,27.08
2024-04-23T10:35:52.582Z,27.24
2024-04-23T10:36:55.814Z,27.02
2024-04-23T10:38:01.318Z,26.24
2024-04-23T10:39:04.689Z,25.56
2024-04-23T10:40:10.011Z,24.5
2024-04-23T10:41:13.464Z,24.08
2024-04-23T10:42:16.876Z,23.97
2024-04-23T10:43:20.101Z,23.1
2024-04-23T10:44:23.684Z,22.98
2024-04-23T10:45:26.977Z,22.74
2024-04-23T10:46:30.255Z,22.3
2024-04-23T10:47:33.695Z,22.2
2024-04-23T10:48:37.374Z,22.02
2024-04-23T10:49:40.924Z,23.15
2024-04-23T10:50:44.295Z,24.99
2024-04-23T10:51:47.666Z,24.07
2024-04-23T10:52:53.148Z,23.33
2024-04-23T10:53:59.372Z,23.25
2024-04-23T10:55:02.522Z,23.7
2024-04-23T10:56:05.886Z,23.07
2024-04-23T10:57:09.507Z,23.16
2024-04-23T10:58:12.819Z,23.44
2024-04-23T10:59:16.207Z,23.79
2024-04-23T11:00:19.613Z,23.57
2024-04-23T11:01:23.044Z,23.53
2024-04-23T11:02:26.727Z,23.6
2024-04-23T11:03:31.206Z,23.73
2024-04-23T11:04:35.675Z,24.06
2024-04-23T11:05:39.161Z,23.72
2024-04-23T11:06:42.477Z,23.71
2024-04-23T11:07:45.785Z,23.56
2024-04-23T11:08:49.030Z,23.81
2024-04-23T11:09:52.264Z,23.67
2024-04-23T11:10:55.635Z,24.05
2024-04-23T11:11:58.851Z,24.22
2024-04-23T11:13:02.048Z,24.27
2024-04-23T11:14:05.507Z,24.36
2024-04-23T11:15:09.022Z,24.37
2024-04-23T11:16:12.293Z,24.39
2024-04-23T11:17:15.582Z,24.55
2024-04-23T11:18:19.282Z,24.53
2024-04-23T11:19:22.786Z,24.6
2024-04-23T11:20:26.051Z,24.58
2024-04-23T11:21:29.325Z,24.72
2024-04-23T11:22:32.578Z,24.81
2024-04-23T11:23:35.737Z,24.89
2024-04-23T11:24:38.992Z,25.01
2024-04-23T11:25:42.278Z,25.17
2024-04-23T11:26:45.588Z,25.15
2024-04-23T11:27:48.938Z,25.28
2024-04-23T11:28:52.484Z,25.29
2024-04-23T11:29:55.957Z,25.3
2024-04-23T11:30:59.254Z,25.41
2024-04-23T11:32:04.635Z,25.54
2024-04-23T11:33:10.365Z,25.5
2024-04-23T11:34:13.798Z,25.56
2024-04-23T11:35:17.100Z,25.45
2024-04-23T11:36:20.559Z,25.61
2024-04-23T11:37:23.838Z,25.67
2024-04-23T11:38:27.103Z,25.73
2024-04-23T11:39:30.312Z,25.76
2024-04-23T11:40:33.631Z,25.81
2024-04-23T11:41:36.795Z,25.89
2024-04-23T11:42:40.002Z,25.96
2024-04-23T11:43:43.292Z,26.05
2024-04-23T11:44:46.535Z,26.05
2024-04-23T11:45:49.754Z,26.07
2024-04-23T11:46:53.029Z,26.1
2024-04-23T11:47:58.317Z,26.19
2024-04-23T11:49:01.838Z,26.23
2024-04-23T11:50:05.414Z,26.3
2024-04-23T11:51:08.891Z,26.3
2024-04-23T11:52:12.128Z,26.4
2024-04-23T11:53:15.395Z,26.4
2024-04-23T11:54:20.746Z,26.42
2024-04-23T11:55:24.392Z,26.48
2024-04-23T11:56:27.685Z,26.46
2024-04-23T11:57:30.992Z,26.56
2024-04-23T11:58:34.331Z,26.54
2024-04-23T11:59:37.507Z,26.57
2024-04-23T12:00:40.720Z,26.64
2024-04-23T12:01:44.057Z,26.68
2024-04-23T12:02:47.492Z,26.7
2024-04-23T12:03:54.167Z,26.71
2024-04-23T12:04:57.708Z,26.74
2024-04-23T12:06:01.283Z,26.8
2024-04-23T12:07:04.570Z,26.8
2024-04-23T12:08:08.024Z,26.85
2024-04-23T12:09:11.477Z,26.9
2024-04-23T12:10:14.719Z,26.94
2024-04-23T12:11:18.131Z,26.91
2024-04-23T12:12:21.661Z,26.94
2024-04-23T12:13:24.846Z,26.95
2024-04-23T12:14:30.054Z,26.94
2024-04-23T12:15:33.253Z,26.96
2024-04-23T12:16:38.612Z,26.97
2024-04-23T12:17:43.941Z,26.89
2024-04-23T12:18:47.285Z,26.94
2024-04-23T12:19:50.604Z,26.83
2024-04-23T12:20:53.988Z,26.93
2024-04-23T12:21:57.170Z,27.11
2024-04-23T12:23:00.382Z,26.99
2024-04-23T12:24:03.638Z,27.04
2024-04-23T12:25:06.902Z,27.03
2024-04-23T12:26:12.245Z,27.06
2024-04-23T12:27:18.792Z,27.04
2024-04-23T12:28:22.020Z,27.04
2024-04-23T12:29:25.384Z,27.08
2024-04-23T12:30:29.697Z,27.05
2024-04-23T12:31:33.026Z,27.12
2024-04-23T12:32:36.965Z,26.97
2024-04-23T12:33:46.289Z,26.96
2024-04-23T12:34:49.561Z,26.91
2024-04-23T12:35:52.855Z,27.02
2024-04-23T12:36:56.210Z,27.06
2024-04-23T12:37:59.749Z,27.13
2024-04-23T12:39:05.023Z,27.05
2024-04-23T12:40:09.288Z,27.05
2024-04-23T12:41:12.603Z,27.04
2024-04-23T12:42:15.937Z,27.17
2024-04-23T12:43:19.182Z,27.22
2024-04-23T12:44:22.515Z,27.34
2024-04-23T12:45:27.885Z,27.25
2024-04-23T12:46:33.337Z,27.22
2024-04-23T12:47:36.755Z,27.31
2024-04-23T12:48:40.898Z,27.23
2024-04-23T12:49:45.120Z,27.29
2024-04-23T12:50:48.455Z,27.43
2024-04-23T12:51:58.270Z,27.46
2024-04-23T12:53:02.381Z,27.53
2024-04-23T12:54:06.832Z,27.34
2024-04-23T12:55:10.310Z,27.44
2024-04-23T12:56:13.894Z,27.53
2024-04-23T12:57:17.185Z,27.63
2024-04-23T12:58:20.460Z,27.66
2024-04-23T12:59:23.719Z,27.5
2024-04-23T13:00:26.966Z,27.41
2024-04-23T13:01:39.342Z,27.93
2024-04-23T13:02:43.218Z,28.74
2024-04-23T13:03:46.551Z,29.84
2024-04-23T13:04:51.470Z,30.89
2024-04-23T13:05:54.698Z,31.96
2024-04-23T13:06:57.890Z,31.94
2024-04-23T13:08:01.302Z,31.8
2024-04-23T13:09:04.749Z,31.83
2024-04-23T13:10:07.992Z,31.51
2024-04-23T13:11:11.518Z,31.74
2024-04-23T13:12:15.021Z,31.48
2024-04-23T13:13:18.269Z,31.22
2024-04-23T13:14:21.536Z,31.14
2024-04-23T13:15:24.812Z,31.04
2024-04-23T13:16:38.759Z,30.18
2024-04-23T13:17:41.201Z,30.3
2024-04-23T13:18:44.610Z,30.24
2024-04-23T13:19:56.974Z,30.28
2024-04-23T13:21:01.110Z,30.25
2024-04-23T13:22:06.431Z,30.1
2024-04-23T13:23:10.112Z,30.03
2024-04-23T13:24:13.749Z,29.91
2024-04-23T13:25:17.076Z,29.15
2024-04-23T13:26:21.300Z,29.4
2024-04-23T13:27:24.563Z,29.44
2024-04-23T13:28:27.809Z,29.19
2024-04-23T13:29:31.061Z,29.07
2024-04-23T13:30:34.304Z,29.17
2024-04-23T13:31:37.625Z,29.19
2024-04-23T13:32:41.207Z,29.2
2024-04-23T13:33:46.426Z,29.3
2024-04-23T13:34:49.929Z,29.26
2024-04-23T13:35:53.384Z,29.18
2024-04-23T13:36:56.711Z,29.17
2024-04-23T13:37:59.854Z,29.32
2024-04-23T13:39:03.220Z,29.34
2024-04-23T13:40:06.580Z,29.35
2024-04-23T13:41:10.254Z,29.31
2024-04-23T13:42:13.688Z,29.36
2024-04-23T13:43:17.018Z,29.31
2024-04-23T13:44:20.449Z,29.41
2024-04-23T13:45:23.740Z,29.35
2024-04-23T13:46:27.089Z,29.43
2024-04-23T13:47:30.596Z,29.42